sensor_id;sensor_type;location;lat;lon;timestamp;pressure;altitude;pressure_sealevel;temperature;humidity
18795;BME280;29610;49.022;12.114;2022-12-07T00:00:07;97661.78;;;4.91;100.00
18795;BME280;29610;49.022;12.114;2022-12-07T00:02:36;97663.84;;;4.99;100.00
18795;BME280;29610;49.022;12.114;2022-12-07T00:05:05;97665.97;;;5.02;100.00
18795;BME280;29610;49.022;12.114;2022-12-07T00:07:35;97661.63;;;5.06;100.00
18795;BME280;29610;49.022;12.114;2022-12-07T00:10:06;97657.97;;;4.92;100.00
18795;BME280;29610;49.022;12.114;2022-12-07T00:12:34;97654.72;;;4.95;100.00
18795;BME280;29610;49.022;12.114;2022-12-07T00:15:04;97649.28;;;5.00;100.00
18795;BME280;29610;49.022;12.114;2022-12-07T00:17:32;97645.38;;;4.87;100.00
18795;BME280;29610;49.022;12.114;2022-12-07T00:20:02;97647.84;;;4.84;100.00
18795;BME280;29610;49.022;12.114;2022-12-07T00:22:31;97644.34;;;4.83;100.00
18795;BME280;29610;49.022;12.114;2022-12-07T00:25:01;97642.78;;;4.77;100.00
18795;BME280;29610;49.022;12.114;2022-12-07T00:27:30;97644.84;;;4.85;100.00
18795;BME280;29610;49.022;12.114;2022-12-07T00:29:58;97641.66;;;4.83;100.00
18795;BME280;29610;49.022;12.114;2022-12-07T00:32:27;97643.84;;;4.81;100.00
18795;BME280;29610;49.022;12.114;2022-12-07T00:34:56;97646.00;;;4.79;100.00
18795;BME280;29610;49.022;12.114;2022-12-07T00:37:24;97648.41;;;4.81;100.00
18795;BME280;29610;49.022;12.114;2022-12-07T00:39:53;97642.25;;;4.80;100.00
18795;BME280;29610;49.022;12.114;2022-12-07T00:42:23;97643.88;;;4.76;100.00
18795;BME280;29610;49.022;12.114;2022-12-07T00:44:51;97640.84;;;4.59;100.00
18795;BME280;29610;49.022;12.114;2022-12-07T00:47:20;97641.56;;;4.65;100.00
18795;BME280;29610;49.022;12.114;2022-12-07T00:49:49;97642.72;;;4.59;100.00
18795;BME280;29610;49.022;12.114;2022-12-07T00:52:17;97641.06;;;4.63;100.00
18795;BME280;29610;49.022;12.114;2022-12-07T00:54:46;97650.75;;;4.64;100.00
18795;BME280;29610;49.022;12.114;2022-12-07T00:57:14;97639.41;;;4.67;100.00
18795;BME280;29610;49.022;12.114;2022-12-07T00:59:44;97644.88;;;4.57;100.00
18795;BME280;29610;49.022;12.114;2022-12-07T01:02:13;97638.50;;;4.47;100.00
18795;BME280;29610;49.022;12.114;2022-12-07T01:04:41;97641.44;;;4.51;100.00
18795;BME280;29610;49.022;12.114;2022-12-07T01:07:10;97639.13;;;4.39;100.00
18795;BME280;29610;49.022;12.114;2022-12-07T01:09:39;97642.22;;;4.51;100.00
18795;BME280;29610;49.022;12.114;2022-12-07T01:12:07;97644.13;;;4.51;100.00
18795;BME280;29610;49.022;12.114;2022-12-07T01:14:36;97643.00;;;4.57;100.00
18795;BME280;29610;49.022;12.114;2022-12-07T01:17:05;97649.22;;;4.24;100.00
18795;BME280;29610;49.022;12.114;2022-12-07T01:19:34;97642.94;;;4.33;100.00
18795;BME280;29610;49.022;12.114;2022-12-07T01:22:03;97638.31;;;4.39;100.00
18795;BME280;29610;49.022;12.114;2022-12-07T01:24:31;97645.28;;;4.45;100.00
18795;BME280;29610;49.022;12.114;2022-12-07T01:27:00;97640.69;;;4.45;100.00
18795;BME280;29610;49.022;12.114;2022-12-07T01:29:28;97641.59;;;4.31;100.00
18795;BME280;29610;49.022;12.114;2022-12-07T01:31:57;97648.34;;;4.33;100.00
18795;BME280;29610;49.022;12.114;2022-12-07T01:34:28;97647.06;;;4.26;100.00
18795;BME280;29610;49.022;12.114;2022-12-07T01:36:57;97645.63;;;4.33;100.00
18795;BME280;29610;49.022;12.114;2022-12-07T01:39:26;97649.13;;;4.34;100.00
18795;BME280;29610;49.022;12.114;2022-12-07T01:41:54;97637.41;;;4.48;100.00
18795;BME280;29610;49.022;12.114;2022-12-07T01:44:25;97635.34;;;4.40;100.00
18795;BME280;29610;49.022;12.114;2022-12-07T01:46:55;97638.50;;;4.47;100.00
18795;BME280;29610;49.022;12.114;2022-12-07T01:49:33;97634.50;;;4.45;100.00
18795;BME280;29610;49.022;12.114;2022-12-07T01:52:14;97633.69;;;4.44;100.00
18795;BME280;29610;49.022;12.114;2022-12-07T01:54:46;97629.22;;;4.35;100.00
18795;BME280;29610;49.022;12.114;2022-12-07T01:57:17;97632.19;;;4.33;100.00
18795;BME280;29610;49.022;12.114;2022-12-07T01:59:49;97634.91;;;4.28;100.00
18795;BME280;29610;49.022;12.114;2022-12-07T02:02:25;97632.19;;;4.33;100.00
18795;BME280;29610;49.022;12.114;2022-12-07T02:04:59;97628.97;;;4.31;100.00
18795;BME280;29610;49.022;12.114;2022-12-07T02:07:31;97625.78;;;4.24;100.00
18795;BME280;29610;49.022;12.114;2022-12-07T02:10:13;97636.00;;;4.27;100.00
18795;BME280;29610;49.022;12.114;2022-12-07T02:12:43;97635.84;;;4.14;100.00
18795;BME280;29610;49.022;12.114;2022-12-07T02:15:13;97636.97;;;4.08;100.00
18795;BME280;29610;49.022;12.114;2022-12-07T02:17:50;97637.25;;;4.06;100.00
18795;BME280;29610;49.022;12.114;2022-12-07T02:20:29;97639.72;;;3.98;100.00
18795;BME280;29610;49.022;12.114;2022-12-07T02:27:15;97632.66;;;4.07;100.00
18795;BME280;29610;49.022;12.114;2022-12-07T02:30:00;97643.97;;;4.04;100.00
18795;BME280;29610;49.022;12.114;2022-12-07T02:32:42;97638.78;;;4.17;100.00
18795;BME280;29610;49.022;12.114;2022-12-07T02:35:19;97636.91;;;4.18;100.00
18795;BME280;29610;49.022;12.114;2022-12-07T02:37:58;97632.59;;;4.17;100.00
18795;BME280;29610;49.022;12.114;2022-12-07T02:40:35;97632.06;;;4.15;100.00
18795;BME280;29610;49.022;12.114;2022-12-07T02:43:10;97631.53;;;4.18;100.00
18795;BME280;29610;49.022;12.114;2022-12-07T02:45:44;97630.44;;;4.19;100.00
18795;BME280;29610;49.022;12.114;2022-12-07T02:48:17;97623.59;;;4.31;100.00
18795;BME280;29610;49.022;12.114;2022-12-07T02:50:50;97625.28;;;4.22;100.00
18795;BME280;29610;49.022;12.114;2022-12-07T02:53:32;97632.31;;;4.18;100.00
18795;BME280;29610;49.022;12.114;2022-12-07T02:56:08;97620.66;;;4.28;100.00
18795;BME280;29610;49.022;12.114;2022-12-07T02:58:53;97622.97;;;4.39;100.00
18795;BME280;29610;49.022;12.114;2022-12-07T03:01:38;97623.50;;;4.41;100.00
18795;BME280;29610;49.022;12.114;2022-12-07T03:04:28;97624.41;;;4.32;100.00
18795;BME280;29610;49.022;12.114;2022-12-07T03:07:11;97624.19;;;4.23;100.00
18795;BME280;29610;49.022;12.114;2022-12-07T03:09:49;97611.53;;;4.29;100.00
18795;BME280;29610;49.022;12.114;2022-12-07T03:12:27;97615.56;;;4.26;100.00
18795;BME280;29610;49.022;12.114;2022-12-07T03:15:06;97626.06;;;4.23;100.00
18795;BME280;29610;49.022;12.114;2022-12-07T03:17:42;97615.91;;;4.15;100.00
18795;BME280;29610;49.022;12.114;2022-12-07T03:20:17;97618.34;;;4.16;100.00
18795;BME280;29610;49.022;12.114;2022-12-07T03:22:47;97613.22;;;4.15;100.00
18795;BME280;29610;49.022;12.114;2022-12-07T03:25:17;97621.22;;;4.25;100.00
18795;BME280;29610;49.022;12.114;2022-12-07T03:27:52;97617.97;;;3.94;100.00
18795;BME280;29610;49.022;12.114;2022-12-07T03:30:28;97627.41;;;3.92;100.00
18795;BME280;29610;49.022;12.114;2022-12-07T03:33:07;97626.88;;;3.90;100.00
18795;BME280;29610;49.022;12.114;2022-12-07T03:35:43;97625.53;;;3.92;100.00
18795;BME280;29610;49.022;12.114;2022-12-07T03:38:19;97623.31;;;3.99;100.00
18795;BME280;29610;49.022;12.114;2022-12-07T03:40:59;97615.75;;;4.06;100.00
18795;BME280;29610;49.022;12.114;2022-12-07T03:43:29;97613.19;;;4.20;100.00
18795;BME280;29610;49.022;12.114;2022-12-07T03:46:17;97618.97;;;4.08;100.00
18795;BME280;29610;49.022;12.114;2022-12-07T03:48:57;97624.09;;;4.05;100.00
18795;BME280;29610;49.022;12.114;2022-12-07T03:51:37;97624.09;;;4.05;100.00
18795;BME280;29610;49.022;12.114;2022-12-07T03:54:14;97621.66;;;4.08;100.00
18795;BME280;29610;49.022;12.114;2022-12-07T03:56:46;97615.13;;;4.14;100.00
18795;BME280;29610;49.022;12.114;2022-12-07T03:59:16;97612.41;;;4.19;100.00
18795;BME280;29610;49.022;12.114;2022-12-07T04:01:52;97613.22;;;4.15;100.00
18795;BME280;29610;49.022;12.114;2022-12-07T04:04:24;97617.69;;;3.96;100.00
18795;BME280;29610;49.022;12.114;2022-12-07T04:06:53;97603.25;;;3.87;100.00
18795;BME280;29610;49.022;12.114;2022-12-07T04:09:23;97599.72;;;3.91;100.00
18795;BME280;29610;49.022;12.114;2022-12-07T04:11:52;97596.47;;;3.94;100.00
18795;BME280;29610;49.022;12.114;2022-12-07T04:14:20;97607.63;;;3.78;100.00
18795;BME280;29610;49.022;12.114;2022-12-07T04:16:51;97614.78;;;3.92;100.00
18795;BME280;29610;49.022;12.114;2022-12-07T04:19:25;97616.03;;;4.05;100.00
18795;BME280;29610;49.022;12.114;2022-12-07T04:21:55;97616.31;;;4.03;100.00
18795;BME280;29610;49.022;12.114;2022-12-07T04:24:24;97614.41;;;4.04;100.00
18795;BME280;29610;49.022;12.114;2022-12-07T04:26:53;97613.63;;;4.03;100.00
18795;BME280;29610;49.022;12.114;2022-12-07T04:29:23;97609.09;;;3.99;100.00
18795;BME280;29610;49.022;12.114;2022-12-07T04:31:52;97608.75;;;4.05;100.00
18795;BME280;29610;49.022;12.114;2022-12-07T04:34:21;97604.41;;;4.09;100.00
18795;BME280;29610;49.022;12.114;2022-12-07T04:36:51;97603.47;;;3.95;100.00
18795;BME280;29610;49.022;12.114;2022-12-07T04:39:22;97602.06;;;4.03;100.00
18795;BME280;29610;49.022;12.114;2022-12-07T04:41:52;97600.31;;;4.17;100.00
18795;BME280;29610;49.022;12.114;2022-12-07T04:44:22;97588.00;;;4.11;100.00
18795;BME280;29610;49.022;12.114;2022-12-07T04:46:52;97589.31;;;4.13;100.00
18795;BME280;29610;49.022;12.114;2022-12-07T04:49:21;97595.78;;;4.12;100.00
18795;BME280;29610;49.022;12.114;2022-12-07T04:51:52;97593.94;;;4.08;100.00
18795;BME280;29610;49.022;12.114;2022-12-07T04:54:21;97605.00;;;4.06;100.00
18795;BME280;29610;49.022;12.114;2022-12-07T04:56:49;97599.94;;;4.00;100.00
18795;BME280;29610;49.022;12.114;2022-12-07T04:59:18;97586.56;;;3.90;100.00
18795;BME280;29610;49.022;12.114;2022-12-07T05:01:46;97590.28;;;3.99;100.00
18795;BME280;29610;49.022;12.114;2022-12-07T05:04:15;97587.78;;;4.02;100.00
18795;BME280;29610;49.022;12.114;2022-12-07T05:06:45;97592.16;;;3.98;100.00
18795;BME280;29610;49.022;12.114;2022-12-07T05:09:15;97589.22;;;3.95;100.00
18795;BME280;29610;49.022;12.114;2022-12-07T05:11:43;97588.81;;;3.78;100.00
18795;BME280;29610;49.022;12.114;2022-12-07T05:14:15;97582.41;;;3.69;100.00
18795;BME280;29610;49.022;12.114;2022-12-07T05:16:47;97587.34;;;3.57;100.00
18795;BME280;29610;49.022;12.114;2022-12-07T05:19:17;97581.28;;;3.36;100.00
18795;BME280;29610;49.022;12.114;2022-12-07T05:21:46;97580.34;;;3.17;100.00
18795;BME280;29610;49.022;12.114;2022-12-07T05:24:17;97579.84;;;3.00;100.00
18795;BME280;29610;49.022;12.114;2022-12-07T05:26:46;97569.75;;;2.87;100.00
18795;BME280;29610;49.022;12.114;2022-12-07T05:29:16;97574.88;;;2.73;100.00
18795;BME280;29610;49.022;12.114;2022-12-07T05:31:45;97571.44;;;2.58;100.00
18795;BME280;29610;49.022;12.114;2022-12-07T05:34:14;97576.28;;;2.56;100.00
18795;BME280;29610;49.022;12.114;2022-12-07T05:36:43;97576.28;;;2.46;100.00
18795;BME280;29610;49.022;12.114;2022-12-07T05:39:12;97581.16;;;2.34;100.00
18795;BME280;29610;49.022;12.114;2022-12-07T05:41:42;97586.03;;;2.17;100.00
18795;BME280;29610;49.022;12.114;2022-12-07T05:44:28;97578.25;;;1.95;100.00
18795;BME280;29610;49.022;12.114;2022-12-07T05:46:57;97577.72;;;1.78;100.00
18795;BME280;29610;49.022;12.114;2022-12-07T05:49:25;97578.25;;;1.75;100.00
18795;BME280;29610;49.022;12.114;2022-12-07T05:51:54;97577.97;;;1.62;100.00
18795;BME280;29610;49.022;12.114;2022-12-07T05:54:23;97591.09;;;1.48;100.00
18795;BME280;29610;49.022;12.114;2022-12-07T05:56:53;97596.72;;;1.41;100.00
18795;BME280;29610;49.022;12.114;2022-12-07T05:59:22;97591.31;;;1.31;100.00
18795;BME280;29610;49.022;12.114;2022-12-07T06:01:50;97598.03;;;1.29;100.00
18795;BME280;29610;49.022;12.114;2022-12-07T06:04:20;97595.88;;;1.41;100.00
18795;BME280;29610;49.022;12.114;2022-12-07T06:06:49;97603.13;;;1.40;100.00
18795;BME280;29610;49.022;12.114;2022-12-07T06:09:18;97605.78;;;1.40;100.00
18795;BME280;29610;49.022;12.114;2022-12-07T06:11:47;97600.44;;;1.40;100.00
18795;BME280;29610;49.022;12.114;2022-12-07T06:14:32;97613.56;;;1.47;100.00
18795;BME280;29610;49.022;12.114;2022-12-07T06:17:00;97613.31;;;1.43;100.00
18795;BME280;29610;49.022;12.114;2022-12-07T06:19:29;97619.47;;;1.49;100.00
18795;BME280;29610;49.022;12.114;2022-12-07T06:21:59;97614.41;;;1.52;100.00
18795;BME280;29610;49.022;12.114;2022-12-07T06:24:27;97628.59;;;1.48;100.00
18795;BME280;29610;49.022;12.114;2022-12-07T06:26:56;97620.53;;;1.38;100.00
18795;BME280;29610;49.022;12.114;2022-12-07T06:29:25;97617.03;;;1.37;100.00
18795;BME280;29610;49.022;12.114;2022-12-07T06:31:55;97616.75;;;1.39;100.00
18795;BME280;29610;49.022;12.114;2022-12-07T06:34:26;97623.19;;;1.33;100.00
18795;BME280;29610;49.022;12.114;2022-12-07T06:36:55;97621.59;;;1.32;100.00
18795;BME280;29610;49.022;12.114;2022-12-07T06:39:26;97617.03;;;1.37;100.00
18795;BME280;29610;49.022;12.114;2022-12-07T06:41:56;97628.59;;;1.48;100.00
18795;BME280;29610;49.022;12.114;2022-12-07T06:44:25;97621.38;;;1.59;100.00
18795;BME280;29610;49.022;12.114;2022-12-07T06:46:55;97627.28;;;1.61;100.00
18795;BME280;29610;49.022;12.114;2022-12-07T06:49:49;97632.59;;;1.45;100.00
18795;BME280;29610;49.022;12.114;2022-12-07T06:52:18;97635.00;;;1.52;100.00
18795;BME280;29610;49.022;12.114;2022-12-07T06:54:46;97631.53;;;1.46;100.00
18795;BME280;29610;49.022;12.114;2022-12-07T06:57:15;97633.66;;;1.44;100.00
18795;BME280;29610;49.022;12.114;2022-12-07T06:59:44;97630.72;;;1.46;100.00
18795;BME280;29610;49.022;12.114;2022-12-07T07:02:14;97633.16;;;1.52;100.00
18795;BME280;29610;49.022;12.114;2022-12-07T07:04:43;97643.63;;;1.64;100.00
18795;BME280;29610;49.022;12.114;2022-12-07T07:07:11;97654.34;;;1.84;100.00
18795;BME280;29610;49.022;12.114;2022-12-07T07:09:40;97639.91;;;2.05;100.00
18795;BME280;29610;49.022;12.114;2022-12-07T07:12:09;97647.13;;;2.10;100.00
18795;BME280;29610;49.022;12.114;2022-12-07T07:14:38;97645.00;;;2.17;100.00
18795;BME280;29610;49.022;12.114;2022-12-07T07:17:06;97640.72;;;2.06;100.00
18795;BME280;29610;49.022;12.114;2022-12-07T07:19:36;97644.44;;;2.15;100.00
18795;BME280;29610;49.022;12.114;2022-12-07T07:22:05;97642.06;;;2.23;100.00
18795;BME280;29610;49.022;12.114;2022-12-07T07:24:34;97636.38;;;2.40;100.00
18795;BME280;29610;49.022;12.114;2022-12-07T07:27:03;97631.56;;;2.47;100.00
18795;BME280;29610;49.022;12.114;2022-12-07T07:29:31;97629.38;;;2.59;100.00
18795;BME280;29610;49.022;12.114;2022-12-07T07:32:00;97641.41;;;2.76;100.00
18795;BME280;29610;49.022;12.114;2022-12-07T07:34:33;97635.75;;;2.78;100.00
18795;BME280;29610;49.022;12.114;2022-12-07T07:37:04;97649.16;;;2.88;100.00
18795;BME280;29610;49.022;12.114;2022-12-07T07:39:33;97653.50;;;2.79;100.00
18795;BME280;29610;49.022;12.114;2022-12-07T07:42:02;97646.72;;;3.02;100.00
18795;BME280;29610;49.022;12.114;2022-12-07T07:44:33;97649.88;;;3.19;100.00
18795;BME280;29610;49.022;12.114;2022-12-07T07:47:02;97640.97;;;3.28;100.00
18795;BME280;29610;49.022;12.114;2022-12-07T07:49:32;97641.22;;;3.32;100.00
18795;BME280;29610;49.022;12.114;2022-12-07T07:52:01;97637.44;;;3.38;100.00
18795;BME280;29610;49.022;12.114;2022-12-07T07:54:30;97640.41;;;3.31;100.00
18795;BME280;29610;49.022;12.114;2022-12-07T07:56:59;97632.34;;;3.36;100.00
18795;BME280;29610;49.022;12.114;2022-12-07T07:59:31;97642.47;;;3.49;100.00
18795;BME280;29610;49.022;12.114;2022-12-07T08:02:00;97646.44;;;3.62;100.00
18795;BME280;29610;49.022;12.114;2022-12-07T08:04:29;97644.31;;;3.59;100.00
18795;BME280;29610;49.022;12.114;2022-12-07T08:06:58;97651.66;;;3.87;100.00
18795;BME280;29610;49.022;12.114;2022-12-07T08:09:27;97649.41;;;3.99;100.00
18795;BME280;29610;49.022;12.114;2022-12-07T08:11:57;97657.59;;;4.17;100.00
18795;BME280;29610;49.022;12.114;2022-12-07T08:14:28;97658.41;;;4.18;100.00
18795;BME280;29610;49.022;12.114;2022-12-07T08:16:58;97655.56;;;4.38;100.00
18795;BME280;29610;49.022;12.114;2022-12-07T08:19:26;97649.06;;;4.39;100.00
18795;BME280;29610;49.022;12.114;2022-12-07T08:21:56;97645.16;;;4.55;100.00
18795;BME280;29610;49.022;12.114;2022-12-07T08:24:24;97643.84;;;4.53;100.00
18795;BME280;29610;49.022;12.114;2022-12-07T08:26:53;97648.00;;;4.40;100.00
18795;BME280;29610;49.022;12.114;2022-12-07T08:29:23;97646.75;;;4.61;100.00
18795;BME280;29610;49.022;12.114;2022-12-07T08:31:52;97645.28;;;4.45;100.00
18795;BME280;29610;49.022;12.114;2022-12-07T08:34:21;97651.72;;;4.44;100.00
18795;BME280;29610;49.022;12.114;2022-12-07T08:36:49;97648.06;;;4.64;100.00
18795;BME280;29610;49.022;12.114;2022-12-07T08:39:18;97659.47;;;4.79;100.00
18795;BME280;29610;49.022;12.114;2022-12-07T08:41:58;97654.03;;;4.84;100.00
18795;BME280;29610;49.022;12.114;2022-12-07T08:44:28;97657.22;;;4.63;100.00
18795;BME280;29610;49.022;12.114;2022-12-07T08:47:00;97648.06;;;4.87;100.00
18795;BME280;29610;49.022;12.114;2022-12-07T08:49:35;97648.66;;;5.08;100.00
18795;BME280;29610;49.022;12.114;2022-12-07T08:52:05;97654.28;;;5.11;100.00
18795;BME280;29610;49.022;12.114;2022-12-07T08:54:35;97658.38;;;5.27;100.00
18795;BME280;29610;49.022;12.114;2022-12-07T08:57:06;97652.44;;;5.07;100.00
18795;BME280;29610;49.022;12.114;2022-12-07T08:59:37;97651.06;;;5.09;100.00
18795;BME280;29610;49.022;12.114;2022-12-07T09:02:07;97656.09;;;4.92;100.00
18795;BME280;29610;49.022;12.114;2022-12-07T09:04:37;97656.72;;;5.08;100.00
18795;BME280;29610;49.022;12.114;2022-12-07T09:07:06;97649.34;;;5.18;100.00
18795;BME280;29610;49.022;12.114;2022-12-07T09:09:36;97653.94;;;5.18;100.00
18795;BME280;29610;49.022;12.114;2022-12-07T09:12:06;97657.56;;;5.27;100.00
18795;BME280;29610;49.022;12.114;2022-12-07T09:14:36;97656.31;;;5.19;100.00
18795;BME280;29610;49.022;12.114;2022-12-07T09:17:06;97657.22;;;5.33;100.00
18795;BME280;29610;49.022;12.114;2022-12-07T09:19:37;97651.94;;;5.47;100.00
18795;BME280;29610;49.022;12.114;2022-12-07T09:22:06;97651.31;;;5.55;100.00
18795;BME280;29610;49.022;12.114;2022-12-07T09:24:37;97652.19;;;5.50;100.00
18795;BME280;29610;49.022;12.114;2022-12-07T09:27:05;97658.88;;;5.53;100.00
18795;BME280;29610;49.022;12.114;2022-12-07T09:29:36;97650.97;;;5.38;100.00
18795;BME280;29610;49.022;12.114;2022-12-07T09:32:05;97648.97;;;5.48;100.00
18795;BME280;29610;49.022;12.114;2022-12-07T09:34:38;97650.31;;;5.69;100.00
18795;BME280;29610;49.022;12.114;2022-12-07T09:37:07;97653.19;;;5.54;100.00
18795;BME280;29610;49.022;12.114;2022-12-07T09:39:38;97641.94;;;5.71;100.00
18795;BME280;29610;49.022;12.114;2022-12-07T09:42:28;97637.53;;;5.75;100.00
18795;BME280;29610;49.022;12.114;2022-12-07T09:45:00;97638.13;;;5.53;100.00
18795;BME280;29610;49.022;12.114;2022-12-07T09:47:32;97646.47;;;5.94;100.00
18795;BME280;29610;49.022;12.114;2022-12-07T09:50:06;97648.88;;;6.14;100.00
18795;BME280;29610;49.022;12.114;2022-12-07T09:52:36;97639.44;;;6.30;100.00
18795;BME280;29610;49.022;12.114;2022-12-07T09:55:13;97637.63;;;6.07;100.00
18795;BME280;29610;49.022;12.114;2022-12-07T09:57:43;97633.59;;;6.23;100.00
18795;BME280;29610;49.022;12.114;2022-12-07T10:00:17;97632.69;;;6.14;100.00
18795;BME280;29610;49.022;12.114;2022-12-07T10:02:50;97634.13;;;6.07;100.00
18795;BME280;29610;49.022;12.114;2022-12-07T10:05:26;97626.03;;;6.25;100.00
18795;BME280;29610;49.022;12.114;2022-12-07T10:07:56;97635.19;;;6.24;100.00
18795;BME280;29610;49.022;12.114;2022-12-07T10:10:30;97632.56;;;6.19;100.00
18795;BME280;29610;49.022;12.114;2022-12-07T10:13:07;97623.31;;;6.25;100.00
18795;BME280;29610;49.022;12.114;2022-12-07T10:15:55;97615.31;;;6.20;100.00
18795;BME280;29610;49.022;12.114;2022-12-07T10:18:35;97622.97;;;6.13;100.00
18795;BME280;29610;49.022;12.114;2022-12-07T10:21:18;97607.72;;;6.04;100.00
18795;BME280;29610;49.022;12.114;2022-12-07T10:24:02;97605.34;;;6.02;100.00
18795;BME280;29610;49.022;12.114;2022-12-07T10:26:34;97606.69;;;6.18;100.00
18795;BME280;29610;49.022;12.114;2022-12-07T10:29:16;97596.19;;;6.49;100.00
18795;BME280;29610;49.022;12.114;2022-12-07T10:31:56;97597.09;;;6.44;100.00
18795;BME280;29610;49.022;12.114;2022-12-07T10:34:29;97594.63;;;6.29;100.00
18795;BME280;29610;49.022;12.114;2022-12-07T10:37:17;97603.63;;;6.25;100.00
18795;BME280;29610;49.022;12.114;2022-12-07T10:39:50;97595.59;;;6.20;100.00
18795;BME280;29610;49.022;12.114;2022-12-07T10:42:23;97584.28;;;6.36;100.00
18795;BME280;29610;49.022;12.114;2022-12-07T10:45:12;97590.00;;;6.16;100.00
18795;BME280;29610;49.022;12.114;2022-12-07T10:47:51;97576.41;;;5.89;100.00
18795;BME280;29610;49.022;12.114;2022-12-07T10:50:47;97585.19;;;6.13;100.00
18795;BME280;29610;49.022;12.114;2022-12-07T10:53:54;97574.69;;;6.44;100.00
18795;BME280;29610;49.022;12.114;2022-12-07T10:56:58;97574.91;;;6.61;100.00
18795;BME280;29610;49.022;12.114;2022-12-07T10:59:55;97579.63;;;6.23;100.00
18795;BME280;29610;49.022;12.114;2022-12-07T11:03:17;97573.97;;;6.38;100.00
18795;BME280;29610;49.022;12.114;2022-12-07T11:06:02;97572.09;;;6.66;100.00
18795;BME280;29610;49.022;12.114;2022-12-07T11:08:59;97571.50;;;6.69;100.00
18795;BME280;29610;49.022;12.114;2022-12-07T11:11:36;97566.38;;;6.40;100.00
18795;BME280;29610;49.022;12.114;2022-12-07T11:14:20;97567.59;;;6.48;100.00
18795;BME280;29610;49.022;12.114;2022-12-07T11:16:58;97560.66;;;6.42;100.00
18795;BME280;29610;49.022;12.114;2022-12-07T11:19:59;97549.50;;;6.75;100.00
18795;BME280;29610;49.022;12.114;2022-12-07T11:22:43;97548.72;;;6.88;100.00
18795;BME280;29610;49.022;12.114;2022-12-07T11:25:25;97548.63;;;6.93;100.00
18795;BME280;29610;49.022;12.114;2022-12-07T11:28:21;97555.81;;;6.57;100.00
18795;BME280;29610;49.022;12.114;2022-12-07T11:31:04;97544.59;;;6.91;100.00
18795;BME280;29610;49.022;12.114;2022-12-07T11:33:45;97546.41;;;6.68;100.00
18795;BME280;29610;49.022;12.114;2022-12-07T11:36:37;97537.00;;;6.93;100.00
18795;BME280;29610;49.022;12.114;2022-12-07T11:39:22;97541.38;;;7.02;100.00
18795;BME280;29610;49.022;12.114;2022-12-07T11:42:05;97541.69;;;7.01;100.00
18795;BME280;29610;49.022;12.114;2022-12-07T11:44:46;97542.72;;;6.78;100.00
18795;BME280;29610;49.022;12.114;2022-12-07T11:47:30;97532.69;;;6.92;100.00
18795;BME280;29610;49.022;12.114;2022-12-07T11:50:21;97539.63;;;6.84;100.00
18795;BME280;29610;49.022;12.114;2022-12-07T11:52:58;97539.31;;;6.72;100.00
18795;BME280;29610;49.022;12.114;2022-12-07T11:55:41;97541.59;;;6.52;100.00
18795;BME280;29610;49.022;12.114;2022-12-07T11:58:42;97537.31;;;6.51;100.00
18795;BME280;29610;49.022;12.114;2022-12-07T12:01:40;97539.28;;;6.32;100.00
18795;BME280;29610;49.022;12.114;2022-12-07T12:04:29;97529.91;;;6.70;100.00
18795;BME280;29610;49.022;12.114;2022-12-07T12:06:59;97526.69;;;6.81;100.00
18795;BME280;29610;49.022;12.114;2022-12-07T12:09:56;97531.00;;;6.82;100.00
18795;BME280;29610;49.022;12.114;2022-12-07T12:13:14;97520.00;;;6.52;100.00
18795;BME280;29610;49.022;12.114;2022-12-07T12:16:41;97522.50;;;6.75;100.00
18795;BME280;29610;49.022;12.114;2022-12-07T12:19:29;97521.00;;;6.56;100.00
18795;BME280;29610;49.022;12.114;2022-12-07T12:22:11;97518.03;;;6.57;100.00
18795;BME280;29610;49.022;12.114;2022-12-07T12:24:45;97514.31;;;6.53;100.00
18795;BME280;29610;49.022;12.114;2022-12-07T12:27:25;97521.19;;;6.59;100.00
18795;BME280;29610;49.022;12.114;2022-12-07T12:29:58;97519.81;;;6.62;100.00
18795;BME280;29610;49.022;12.114;2022-12-07T12:32:38;97514.69;;;6.74;100.00
18795;BME280;29610;49.022;12.114;2022-12-07T12:35:29;97521.22;;;6.73;100.00
18795;BME280;29610;49.022;12.114;2022-12-07T12:38:26;97521.09;;;6.64;100.00
18795;BME280;29610;49.022;12.114;2022-12-07T12:41:05;97525.59;;;6.55;100.00
18795;BME280;29610;49.022;12.114;2022-12-07T12:43:51;97516.19;;;6.53;100.00
18795;BME280;29610;49.022;12.114;2022-12-07T12:46:54;97520.47;;;6.40;100.00
18795;BME280;29610;49.022;12.114;2022-12-07T12:49:43;97515.19;;;6.49;100.00
18795;BME280;29610;49.022;12.114;2022-12-07T12:52:55;97525.66;;;6.37;100.00
18795;BME280;29610;49.022;12.114;2022-12-07T12:56:14;97512.63;;;6.57;100.00
18795;BME280;29610;49.022;12.114;2022-12-07T12:59:25;97507.78;;;6.54;100.00
18795;BME280;29610;49.022;12.114;2022-12-07T13:02:09;97510.19;;;6.69;100.00
18795;BME280;29610;49.022;12.114;2022-12-07T13:04:55;97504.91;;;6.51;100.00
18795;BME280;29610;49.022;12.114;2022-12-07T13:07:59;97499.13;;;6.57;100.00
18795;BME280;29610;49.022;12.114;2022-12-07T13:10:40;97497.22;;;6.44;100.00
18795;BME280;29610;49.022;12.114;2022-12-07T13:13:33;97495.78;;;6.20;100.00
18795;BME280;29610;49.022;12.114;2022-12-07T13:16:40;97501.00;;;6.30;100.00
18795;BME280;29610;49.022;12.114;2022-12-07T13:19:56;97498.63;;;6.10;100.00
18795;BME280;29610;49.022;12.114;2022-12-07T13:22:53;97493.28;;;6.23;100.00
18795;BME280;29610;49.022;12.114;2022-12-07T13:25:54;97488.78;;;6.32;100.00
18795;BME280;29610;49.022;12.114;2022-12-07T13:28:35;97491.88;;;6.26;100.00
18795;BME280;29610;49.022;12.114;2022-12-07T13:31:35;97498.84;;;6.13;100.00
18795;BME280;29610;49.022;12.114;2022-12-07T13:34:31;97498.75;;;6.05;100.00
18795;BME280;29610;49.022;12.114;2022-12-07T13:37:08;97501.94;;;6.07;100.00